This is the latest recevied weather packets stored in our database for station/object HA2SKA-1. If no packets are shown the sender has not sent any weather packets the latest 10 day(s).
| Time | Temp. | Humidity | Pressure | Rain* | Wind** | Luminosity | Snow |
|---|---|---|---|---|---|---|---|
| 1778090438 | 21.11° C | 51% | 1011.8 hPa | - | - | - | - |
| 1778089538 | 21.11° C | 50% | 1011.7 hPa | - | - | - | - |
| 1778088638 | 21.67° C | 49% | 1011.6 hPa | - | - | - | - |
| 1778087738 | 21.67° C | 49% | 1011.6 hPa | - | - | - | - |
| 1778086838 | 22.22° C | 47% | 1011.7 hPa | - | - | - | - |
| 1778085938 | 22.22° C | 46% | 1011.5 hPa | - | - | - | - |
| 1778085038 | 22.78° C | 45% | 1011.7 hPa | - | - | - | - |
| 1778084138 | 22.78° C | 44% | 1011.7 hPa | - | - | - | - |
| 1778083238 | 23.33° C | 44% | 1011.8 hPa | - | - | - | - |
| 1778082338 | 23.33° C | 44% | 1011.8 hPa | - | - | - | - |
| 1778081438 | 23.33° C | 45% | 1011.8 hPa | - | - | - | - |
| 1778080537 | 24.44° C | 43% | 1011.8 hPa | - | - | - | - |
| 1778079637 | 24.44° C | 42% | 1011.8 hPa | - | - | - | - |
| 1778078737 | 25° C | 40% | 1012 hPa | - | - | - | - |
| 1778077837 | 25° C | 39% | 1012 hPa | - | - | - | - |
| 1778076937 | 24.44° C | 40% | 1011.9 hPa | - | - | - | - |
| 1778076037 | 24.44° C | 41% | 1012 hPa | - | - | - | - |
| 1778075137 | 25° C | 40% | 1012 hPa | - | - | - | - |
| 1778074237 | 25° C | 40% | 1012 hPa | - | - | - | - |
| 1778072447 | 24.44° C | 40% | 1012.1 hPa | - | - | - | - |
| 1778071547 | 26.11° C | 37% | 1012.1 hPa | - | - | - | - |
| 1778070647 | 25.56° C | 39% | 1012 hPa | - | - | - | - |
| 1778069747 | 25° C | 38% | 1012.2 hPa | - | - | - | - |
| 1778068847 | 25° C | 38% | 1012.1 hPa | - | - | - | - |
| 1778067947 | 25.56° C | 37% | 1012.2 hPa | - | - | - | - |
* Rain since midnight (hover to see other rain measurements)
** Current wind speed in m/s (hover to see current wind gust speed)